sensor_id;sensor_type;location;lat;lon;timestamp;temperature;humidity
51884;DHT22;37915;53.254;6.598;2023-02-27T09:06:51;3.80;99.90
51884;DHT22;37915;53.254;6.598;2023-02-27T09:09:18;2.50;99.90
51884;DHT22;37915;53.254;6.598;2023-02-27T09:11:43;2.70;99.90
51884;DHT22;37915;53.254;6.598;2023-02-27T09:14:11;3.50;99.90
51884;DHT22;37915;53.254;6.598;2023-02-27T09:16:36;3.00;99.90
51884;DHT22;37915;53.254;6.598;2023-02-27T09:19:02;3.30;99.90
51884;DHT22;37915;53.254;6.598;2023-02-27T09:21:27;3.50;99.90
51884;DHT22;37915;53.254;6.598;2023-02-27T09:23:54;3.40;99.90
51884;DHT22;37915;53.254;6.598;2023-02-27T09:26:23;4.00;99.90
51884;DHT22;37915;53.254;6.598;2023-02-27T09:28:48;3.70;99.90
51884;DHT22;37915;53.254;6.598;2023-02-27T09:31:14;3.80;99.90
51884;DHT22;37915;53.254;6.598;2023-02-27T09:33:40;3.90;99.90
51884;DHT22;37915;53.254;6.598;2023-02-27T09:36:06;4.00;99.90
51884;DHT22;37915;53.254;6.598;2023-02-27T09:38:33;4.10;99.90
51884;DHT22;37915;53.254;6.598;2023-02-27T09:40:59;5.20;99.90
51884;DHT22;37915;53.254;6.598;2023-02-27T09:43:32;4.80;99.90
51884;DHT22;37915;53.254;6.598;2023-02-27T09:45:59;4.50;99.90
51884;DHT22;37915;53.254;6.598;2023-02-27T09:50:57;4.60;99.90
51884;DHT22;37915;53.254;6.598;2023-02-27T09:53:37;4.80;99.90
51884;DHT22;37915;53.254;6.598;2023-02-27T09:56:07;4.80;99.90
51884;DHT22;37915;53.254;6.598;2023-02-27T09:58:41;4.90;99.90
51884;DHT22;37915;53.254;6.598;2023-02-27T10:04:02;5.00;99.90
51884;DHT22;37915;53.254;6.598;2023-02-27T10:11:39;5.20;99.90
51884;DHT22;37915;53.254;6.598;2023-02-27T10:16:39;5.40;99.90
51884;DHT22;37915;53.254;6.598;2023-02-27T10:19:05;5.40;99.90
51884;DHT22;37915;53.254;6.598;2023-02-27T10:21:48;5.50;99.90
51884;DHT22;37915;53.254;6.598;2023-02-27T10:24:20;5.60;99.90
51884;DHT22;37915;53.254;6.598;2023-02-27T10:26:50;5.70;99.90
51884;DHT22;37915;53.254;6.598;2023-02-27T10:31:49;5.70;99.90
51884;DHT22;37915;53.254;6.598;2023-02-27T10:34:17;5.70;99.90
51884;DHT22;37915;53.254;6.598;2023-02-27T10:36:43;5.60;99.90
51884;DHT22;37915;53.254;6.598;2023-02-27T10:39:10;5.80;99.90
51884;DHT22;37915;53.254;6.598;2023-02-27T10:41:38;5.60;99.90
51884;DHT22;37915;53.254;6.598;2023-02-27T10:44:04;5.60;99.90
51884;DHT22;37915;53.254;6.598;2023-02-27T10:46:31;5.60;99.90
51884;DHT22;37915;53.254;6.598;2023-02-27T10:48:58;5.60;99.90
51884;DHT22;37915;53.254;6.598;2023-02-27T10:53:50;5.60;99.90
51884;DHT22;37915;53.254;6.598;2023-02-27T10:56:26;5.60;99.90
51884;DHT22;37915;53.254;6.598;2023-02-27T10:59:01;5.60;99.90
51884;DHT22;37915;53.254;6.598;2023-02-27T11:01:39;5.60;99.90
51884;DHT22;37915;53.254;6.598;2023-02-27T11:04:05;5.60;99.90
51884;DHT22;37915;53.254;6.598;2023-02-27T11:06:30;5.80;99.90
51884;DHT22;37915;53.254;6.598;2023-02-27T11:09:17;5.90;99.90
51884;DHT22;37915;53.254;6.598;2023-02-27T11:11:43;6.10;99.90
51884;DHT22;37915;53.254;6.598;2023-02-27T11:16:51;6.50;99.90
51884;DHT22;37915;53.254;6.598;2023-02-27T11:19:36;6.50;99.90
51884;DHT22;37915;53.254;6.598;2023-02-27T11:24:28;6.50;99.90
51884;DHT22;37915;53.254;6.598;2023-02-27T11:26:56;6.50;99.90
51884;DHT22;37915;53.254;6.598;2023-02-27T11:29:22;6.40;99.90
51884;DHT22;37915;53.254;6.598;2023-02-27T11:34:17;6.30;99.90
51884;DHT22;37915;53.254;6.598;2023-02-27T11:36:44;6.30;99.90
51884;DHT22;37915;53.254;6.598;2023-02-27T11:41:57;6.30;99.90
51884;DHT22;37915;53.254;6.598;2023-02-27T11:44:24;6.30;99.90
51884;DHT22;37915;53.254;6.598;2023-02-27T11:46:51;6.30;99.90
51884;DHT22;37915;53.254;6.598;2023-02-27T11:49:24;6.30;99.90
51884;DHT22;37915;53.254;6.598;2023-02-27T11:52:14;6.40;99.90
51884;DHT22;37915;53.254;6.598;2023-02-27T11:54:42;6.40;99.90
51884;DHT22;37915;53.254;6.598;2023-02-27T11:57:13;6.40;99.90
51884;DHT22;37915;53.254;6.598;2023-02-27T11:59:46;6.30;99.90
51884;DHT22;37915;53.254;6.598;2023-02-27T12:02:16;6.30;99.90
51884;DHT22;37915;53.254;6.598;2023-02-27T12:04:53;6.30;99.90
51884;DHT22;37915;53.254;6.598;2023-02-27T12:07:24;6.40;99.90
51884;DHT22;37915;53.254;6.598;2023-02-27T12:18:25;6.40;99.90
51884;DHT22;37915;53.254;6.598;2023-02-27T12:23:30;6.50;99.90
51884;DHT22;37915;53.254;6.598;2023-02-27T12:28:38;6.50;99.90
51884;DHT22;37915;53.254;6.598;2023-02-27T12:32:13;6.40;99.90
51884;DHT22;37915;53.254;6.598;2023-02-27T12:36:28;6.50;99.90
51884;DHT22;37915;53.254;6.598;2023-02-27T12:38:54;6.50;99.90
51884;DHT22;37915;53.254;6.598;2023-02-27T12:41:28;6.60;99.90
51884;DHT22;37915;53.254;6.598;2023-02-27T12:44:12;6.70;99.90
51884;DHT22;37915;53.254;6.598;2023-02-27T12:52:16;7.00;99.90
51884;DHT22;37915;53.254;6.598;2023-02-27T12:54:55;6.90;99.90
51884;DHT22;37915;53.254;6.598;2023-02-27T13:07:35;6.70;99.90
51884;DHT22;37915;53.254;6.598;2023-02-27T13:10:21;6.60;99.90
51884;DHT22;37915;53.254;6.598;2023-02-27T13:17:44;6.50;99.90
51884;DHT22;37915;53.254;6.598;2023-02-27T13:25:10;6.60;99.90
51884;DHT22;37915;53.254;6.598;2023-02-27T13:27:48;7.00;99.90
51884;DHT22;37915;53.254;6.598;2023-02-27T13:30:26;6.70;99.90
51884;DHT22;37915;53.254;6.598;2023-02-27T13:40:50;6.90;99.90
51884;DHT22;37915;53.254;6.598;2023-02-27T13:45:52;7.00;99.90
51884;DHT22;37915;53.254;6.598;2023-02-27T13:48:51;7.00;99.90
51884;DHT22;37915;53.254;6.598;2023-02-27T13:54:55;7.10;99.90
51884;DHT22;37915;53.254;6.598;2023-02-27T13:59:25;7.10;99.90
51884;DHT22;37915;53.254;6.598;2023-02-27T14:01:54;7.10;99.90
51884;DHT22;37915;53.254;6.598;2023-02-27T14:04:20;7.10;99.90
51884;DHT22;37915;53.254;6.598;2023-02-27T14:06:49;7.20;99.90
51884;DHT22;37915;53.254;6.598;2023-02-27T14:09:16;7.20;99.90
51884;DHT22;37915;53.254;6.598;2023-02-27T14:11:53;7.20;99.90
51884;DHT22;37915;53.254;6.598;2023-02-27T14:14:40;7.30;99.90
51884;DHT22;37915;53.254;6.598;2023-02-27T14:17:09;7.30;99.90
51884;DHT22;37915;53.254;6.598;2023-02-27T14:24:46;7.60;99.90
51884;DHT22;37915;53.254;6.598;2023-02-27T14:27:24;7.70;99.90
51884;DHT22;37915;53.254;6.598;2023-02-27T14:29:51;7.90;99.90
51884;DHT22;37915;53.254;6.598;2023-02-27T14:32:24;8.00;99.90
51884;DHT22;37915;53.254;6.598;2023-02-27T14:34:50;8.10;99.90
51884;DHT22;37915;53.254;6.598;2023-02-27T14:37:18;8.00;99.90
51884;DHT22;37915;53.254;6.598;2023-02-27T14:39:48;7.90;99.90
51884;DHT22;37915;53.254;6.598;2023-02-27T14:44:44;7.90;99.90
51884;DHT22;37915;53.254;6.598;2023-02-27T14:47:17;7.80;99.90
51884;DHT22;37915;53.254;6.598;2023-02-27T14:49:44;7.80;99.90
51884;DHT22;37915;53.254;6.598;2023-02-27T14:54:36;7.80;99.90
51884;DHT22;37915;53.254;6.598;2023-02-27T14:57:03;7.70;99.90
51884;DHT22;37915;53.254;6.598;2023-02-27T14:59:39;7.70;99.90
51884;DHT22;37915;53.254;6.598;2023-02-27T15:02:22;7.60;99.90
51884;DHT22;37915;53.254;6.598;2023-02-27T15:04:51;7.50;99.90
51884;DHT22;37915;53.254;6.598;2023-02-27T15:07:19;7.50;99.90
51884;DHT22;37915;53.254;6.598;2023-02-27T15:09:52;7.50;99.90
51884;DHT22;37915;53.254;6.598;2023-02-27T15:12:19;7.40;99.90
51884;DHT22;37915;53.254;6.598;2023-02-27T15:14:46;7.40;99.90
51884;DHT22;37915;53.254;6.598;2023-02-27T15:17:14;7.30;99.90
51884;DHT22;37915;53.254;6.598;2023-02-27T15:19:48;7.30;99.90
51884;DHT22;37915;53.254;6.598;2023-02-27T15:22:23;7.30;99.90
51884;DHT22;37915;53.254;6.598;2023-02-27T15:24:53;7.10;99.90
51884;DHT22;37915;53.254;6.598;2023-02-27T15:27:24;7.10;99.90
51884;DHT22;37915;53.254;6.598;2023-02-27T15:29:51;6.90;99.90
51884;DHT22;37915;53.254;6.598;2023-02-27T15:32:20;7.00;99.90
51884;DHT22;37915;53.254;6.598;2023-02-27T15:34:48;6.90;99.90
51884;DHT22;37915;53.254;6.598;2023-02-27T15:37:21;6.90;99.90
51884;DHT22;37915;53.254;6.598;2023-02-27T15:39:47;6.80;99.90
51884;DHT22;37915;53.254;6.598;2023-02-27T15:42:13;6.80;99.90
51884;DHT22;37915;53.254;6.598;2023-02-27T15:44:40;6.70;99.90
51884;DHT22;37915;53.254;6.598;2023-02-27T15:47:06;6.70;99.90
51884;DHT22;37915;53.254;6.598;2023-02-27T15:49:33;6.60;99.90
51884;DHT22;37915;53.254;6.598;2023-02-27T15:52:02;6.60;99.90
51884;DHT22;37915;53.254;6.598;2023-02-27T15:54:30;6.50;99.90
51884;DHT22;37915;53.254;6.598;2023-02-27T15:56:56;6.50;99.90
51884;DHT22;37915;53.254;6.598;2023-02-27T15:59:24;6.40;99.90
51884;DHT22;37915;53.254;6.598;2023-02-27T16:01:51;6.40;99.90
51884;DHT22;37915;53.254;6.598;2023-02-27T16:04:18;7.20;99.90
51884;DHT22;37915;53.254;6.598;2023-02-27T16:06:47;6.20;99.90
51884;DHT22;37915;53.254;6.598;2023-02-27T16:09:19;6.20;99.90
51884;DHT22;37915;53.254;6.598;2023-02-27T16:11:45;6.10;99.90
51884;DHT22;37915;53.254;6.598;2023-02-27T16:16:56;6.00;99.90
51884;DHT22;37915;53.254;6.598;2023-02-27T16:19:25;6.00;99.90
51884;DHT22;37915;53.254;6.598;2023-02-27T16:22:05;5.90;99.90
51884;DHT22;37915;53.254;6.598;2023-02-27T16:24:31;5.80;99.90
51884;DHT22;37915;53.254;6.598;2023-02-27T16:26:57;5.90;99.90
51884;DHT22;37915;53.254;6.598;2023-02-27T16:29:26;5.70;99.90
51884;DHT22;37915;53.254;6.598;2023-02-27T16:31:53;5.90;99.90
51884;DHT22;37915;53.254;6.598;2023-02-27T16:34:36;6.40;99.90
51884;DHT22;37915;53.254;6.598;2023-02-27T16:37:05;5.60;99.90
51884;DHT22;37915;53.254;6.598;2023-02-27T16:39:31;5.60;99.90
51884;DHT22;37915;53.254;6.598;2023-02-27T16:41:57;5.60;99.90
51884;DHT22;37915;53.254;6.598;2023-02-27T16:44:23;5.50;99.90
51884;DHT22;37915;53.254;6.598;2023-02-27T16:46:50;5.50;99.90
51884;DHT22;37915;53.254;6.598;2023-02-27T16:49:26;5.40;99.90
51884;DHT22;37915;53.254;6.598;2023-02-27T16:51:52;5.30;99.90
51884;DHT22;37915;53.254;6.598;2023-02-27T16:54:18;5.20;99.90
51884;DHT22;37915;53.254;6.598;2023-02-27T16:56:44;5.50;99.90
51884;DHT22;37915;53.254;6.598;2023-02-27T16:59:27;5.10;99.90
51884;DHT22;37915;53.254;6.598;2023-02-27T17:01:56;5.00;99.90
51884;DHT22;37915;53.254;6.598;2023-02-27T17:04:23;5.00;99.90
51884;DHT22;37915;53.254;6.598;2023-02-27T17:06:49;5.70;99.90
51884;DHT22;37915;53.254;6.598;2023-02-27T17:09:15;4.90;99.90
51884;DHT22;37915;53.254;6.598;2023-02-27T17:11:40;4.80;99.90
51884;DHT22;37915;53.254;6.598;2023-02-27T17:14:06;4.70;99.90
51884;DHT22;37915;53.254;6.598;2023-02-27T17:16:31;4.70;99.90
51884;DHT22;37915;53.254;6.598;2023-02-27T17:18:57;4.70;99.90
51884;DHT22;37915;53.254;6.598;2023-02-27T17:21:23;4.70;99.90
51884;DHT22;37915;53.254;6.598;2023-02-27T17:23:48;4.60;99.90
51884;DHT22;37915;53.254;6.598;2023-02-27T17:26:14;5.10;99.90
51884;DHT22;37915;53.254;6.598;2023-02-27T17:28:40;4.80;99.90
51884;DHT22;37915;53.254;6.598;2023-02-27T17:31:09;4.50;99.90
51884;DHT22;37915;53.254;6.598;2023-02-27T17:33:35;4.40;99.90
51884;DHT22;37915;53.254;6.598;2023-02-27T17:36:04;4.30;99.90
51884;DHT22;37915;53.254;6.598;2023-02-27T17:38:30;4.30;99.90
51884;DHT22;37915;53.254;6.598;2023-02-27T17:40:56;4.30;99.90
51884;DHT22;37915;53.254;6.598;2023-02-27T17:43:22;4.30;99.90
51884;DHT22;37915;53.254;6.598;2023-02-27T17:45:47;4.40;99.90
51884;DHT22;37915;53.254;6.598;2023-02-27T17:48:13;4.20;99.90
51884;DHT22;37915;53.254;6.598;2023-02-27T17:50:39;4.60;99.90
51884;DHT22;37915;53.254;6.598;2023-02-27T17:53:04;4.20;99.90
51884;DHT22;37915;53.254;6.598;2023-02-27T17:55:30;4.20;99.90
51884;DHT22;37915;53.254;6.598;2023-02-27T17:57:55;4.90;99.90
51884;DHT22;37915;53.254;6.598;2023-02-27T18:00:21;4.20;99.90
51884;DHT22;37915;53.254;6.598;2023-02-27T18:02:47;4.20;99.90
51884;DHT22;37915;53.254;6.598;2023-02-27T18:05:13;4.20;99.90
51884;DHT22;37915;53.254;6.598;2023-02-27T18:07:39;4.30;99.90
51884;DHT22;37915;53.254;6.598;2023-02-27T18:10:05;5.10;99.90
51884;DHT22;37915;53.254;6.598;2023-02-27T18:12:33;4.20;99.90
51884;DHT22;37915;53.254;6.598;2023-02-27T18:14:59;4.60;99.90
51884;DHT22;37915;53.254;6.598;2023-02-27T18:17:25;4.10;99.90
51884;DHT22;37915;53.254;6.598;2023-02-27T18:19:50;4.10;99.90
51884;DHT22;37915;53.254;6.598;2023-02-27T18:22:16;4.30;99.90
51884;DHT22;37915;53.254;6.598;2023-02-27T18:24:41;4.00;99.90
51884;DHT22;37915;53.254;6.598;2023-02-27T18:27:07;4.40;99.90
51884;DHT22;37915;53.254;6.598;2023-02-27T18:29:32;4.60;99.90
51884;DHT22;37915;53.254;6.598;2023-02-27T18:31:58;3.80;99.90
51884;DHT22;37915;53.254;6.598;2023-02-27T18:34:24;3.80;99.90
51884;DHT22;37915;53.254;6.598;2023-02-27T18:36:50;3.70;99.90
51884;DHT22;37915;53.254;6.598;2023-02-27T18:39:16;3.20;99.90
51884;DHT22;37915;53.254;6.598;2023-02-27T18:41:42;3.40;99.90
51884;DHT22;37915;53.254;6.598;2023-02-27T18:44:07;3.60;99.90
51884;DHT22;37915;53.254;6.598;2023-02-27T18:46:33;4.60;99.90
51884;DHT22;37915;53.254;6.598;2023-02-27T18:48:59;4.20;99.90
51884;DHT22;37915;53.254;6.598;2023-02-27T18:51:25;3.50;99.90
51884;DHT22;37915;53.254;6.598;2023-02-27T18:53:51;3.90;99.90
51884;DHT22;37915;53.254;6.598;2023-02-27T18:56:18;3.40;99.90
51884;DHT22;37915;53.254;6.598;2023-02-27T18:58:44;3.30;99.90
51884;DHT22;37915;53.254;6.598;2023-02-27T19:01:27;3.30;99.90
51884;DHT22;37915;53.254;6.598;2023-02-27T19:03:53;3.20;99.90
51884;DHT22;37915;53.254;6.598;2023-02-27T19:06:24;3.20;99.90
51884;DHT22;37915;53.254;6.598;2023-02-27T19:08:50;3.10;99.90
51884;DHT22;37915;53.254;6.598;2023-02-27T19:11:20;3.00;99.90
51884;DHT22;37915;53.254;6.598;2023-02-27T19:13:46;3.00;99.90
51884;DHT22;37915;53.254;6.598;2023-02-27T19:16:11;2.90;99.90
51884;DHT22;37915;53.254;6.598;2023-02-27T19:18:37;3.00;99.90
51884;DHT22;37915;53.254;6.598;2023-02-27T19:21:03;2.80;99.90
51884;DHT22;37915;53.254;6.598;2023-02-27T19:23:28;2.70;99.90
51884;DHT22;37915;53.254;6.598;2023-02-27T19:25:58;3.10;99.90
51884;DHT22;37915;53.254;6.598;2023-02-27T19:28:24;2.70;99.90
51884;DHT22;37915;53.254;6.598;2023-02-27T19:30:49;2.70;99.90
51884;DHT22;37915;53.254;6.598;2023-02-27T19:33:15;2.60;99.90
51884;DHT22;37915;53.254;6.598;2023-02-27T19:35:41;2.60;99.90
51884;DHT22;37915;53.254;6.598;2023-02-27T19:38:06;2.70;99.90
51884;DHT22;37915;53.254;6.598;2023-02-27T19:40:32;2.60;99.90
51884;DHT22;37915;53.254;6.598;2023-02-27T19:42:57;2.60;99.90
51884;DHT22;37915;53.254;6.598;2023-02-27T19:45:23;2.70;99.90
51884;DHT22;37915;53.254;6.598;2023-02-27T19:47:49;3.30;99.90
51884;DHT22;37915;53.254;6.598;2023-02-27T19:50:14;3.00;99.90
51884;DHT22;37915;53.254;6.598;2023-02-27T19:52:40;1.40;99.90
51884;DHT22;37915;53.254;6.598;2023-02-27T19:55:06;3.40;99.90
51884;DHT22;37915;53.254;6.598;2023-02-27T19:57:35;2.80;99.90
51884;DHT22;37915;53.254;6.598;2023-02-27T20:00:02;2.90;99.90
51884;DHT22;37915;53.254;6.598;2023-02-27T20:02:30;2.90;99.90
51884;DHT22;37915;53.254;6.598;2023-02-27T20:04:55;3.50;99.90
51884;DHT22;37915;53.254;6.598;2023-02-27T20:07:21;3.00;99.90
51884;DHT22;37915;53.254;6.598;2023-02-27T20:09:48;3.10;99.90
51884;DHT22;37915;53.254;6.598;2023-02-27T20:12:14;4.40;99.90
51884;DHT22;37915;53.254;6.598;2023-02-27T20:14:39;2.40;99.90
51884;DHT22;37915;53.254;6.598;2023-02-27T20:17:05;3.00;99.90
51884;DHT22;37915;53.254;6.598;2023-02-27T20:19:32;3.10;99.90
51884;DHT22;37915;53.254;6.598;2023-02-27T20:21:58;3.10;99.90
51884;DHT22;37915;53.254;6.598;2023-02-27T20:24:24;3.20;99.90
51884;DHT22;37915;53.254;6.598;2023-02-27T20:26:51;4.50;99.90
51884;DHT22;37915;53.254;6.598;2023-02-27T20:29:19;3.20;99.90
51884;DHT22;37915;53.254;6.598;2023-02-27T20:31:45;3.20;99.90
51884;DHT22;37915;53.254;6.598;2023-02-27T20:34:12;3.20;99.90
51884;DHT22;37915;53.254;6.598;2023-02-27T20:36:40;3.10;99.90
51884;DHT22;37915;53.254;6.598;2023-02-27T20:39:06;3.10;99.90
51884;DHT22;37915;53.254;6.598;2023-02-27T20:41:32;3.70;99.90
51884;DHT22;37915;53.254;6.598;2023-02-27T20:43:58;4.10;99.90
51884;DHT22;37915;53.254;6.598;2023-02-27T20:46:25;3.20;99.90
51884;DHT22;37915;53.254;6.598;2023-02-27T20:49:00;3.10;99.90
51884;DHT22;37915;53.254;6.598;2023-02-27T20:51:27;3.20;99.90
51884;DHT22;37915;53.254;6.598;2023-02-27T20:53:54;3.60;99.90
51884;DHT22;37915;53.254;6.598;2023-02-27T20:56:21;3.20;99.90
51884;DHT22;37915;53.254;6.598;2023-02-27T20:58:47;3.20;99.90
51884;DHT22;37915;53.254;6.598;2023-02-27T21:01:13;3.30;99.90
51884;DHT22;37915;53.254;6.598;2023-02-27T21:03:40;3.30;99.90
51884;DHT22;37915;53.254;6.598;2023-02-27T21:06:06;3.30;99.90
51884;DHT22;37915;53.254;6.598;2023-02-27T21:08:36;3.30;99.90
51884;DHT22;37915;53.254;6.598;2023-02-27T21:11:15;3.30;99.90
51884;DHT22;37915;53.254;6.598;2023-02-27T21:13:41;3.40;99.90
51884;DHT22;37915;53.254;6.598;2023-02-27T21:16:07;4.00;99.90
51884;DHT22;37915;53.254;6.598;2023-02-27T21:18:34;3.60;99.90
51884;DHT22;37915;53.254;6.598;2023-02-27T21:21:07;3.40;99.90
51884;DHT22;37915;53.254;6.598;2023-02-27T21:23:33;3.40;99.90
51884;DHT22;37915;53.254;6.598;2023-02-27T21:26:16;3.40;99.90
51884;DHT22;37915;53.254;6.598;2023-02-27T21:28:42;4.00;99.90
51884;DHT22;37915;53.254;6.598;2023-02-27T21:31:15;3.50;99.90
51884;DHT22;37915;53.254;6.598;2023-02-27T21:33:41;3.50;99.90
51884;DHT22;37915;53.254;6.598;2023-02-27T21:36:08;3.50;99.90
51884;DHT22;37915;53.254;6.598;2023-02-27T21:38:33;3.60;99.90
51884;DHT22;37915;53.254;6.598;2023-02-27T21:41:09;4.80;99.90
51884;DHT22;37915;53.254;6.598;2023-02-27T21:43:36;4.10;99.90
51884;DHT22;37915;53.254;6.598;2023-02-27T21:46:05;3.50;99.90
51884;DHT22;37915;53.254;6.598;2023-02-27T21:48:31;3.50;99.90
51884;DHT22;37915;53.254;6.598;2023-02-27T21:50:57;3.50;99.90
51884;DHT22;37915;53.254;6.598;2023-02-27T21:53:23;3.50;99.90
51884;DHT22;37915;53.254;6.598;2023-02-27T21:55:49;3.50;99.90
51884;DHT22;37915;53.254;6.598;2023-02-27T21:58:15;4.40;99.90
51884;DHT22;37915;53.254;6.598;2023-02-27T22:00:40;3.40;99.90
51884;DHT22;37915;53.254;6.598;2023-02-27T22:03:07;3.50;99.90
51884;DHT22;37915;53.254;6.598;2023-02-27T22:05:33;3.50;99.90
51884;DHT22;37915;53.254;6.598;2023-02-27T22:07:58;3.50;99.90
51884;DHT22;37915;53.254;6.598;2023-02-27T22:10:24;3.50;99.90
51884;DHT22;37915;53.254;6.598;2023-02-27T22:12:49;3.50;99.90
51884;DHT22;37915;53.254;6.598;2023-02-27T22:15:15;3.50;99.90
51884;DHT22;37915;53.254;6.598;2023-02-27T22:17:41;3.50;99.90
51884;DHT22;37915;53.254;6.598;2023-02-27T22:20:06;3.50;99.90
51884;DHT22;37915;53.254;6.598;2023-02-27T22:22:32;3.50;99.90
51884;DHT22;37915;53.254;6.598;2023-02-27T22:24:58;3.60;99.90
51884;DHT22;37915;53.254;6.598;2023-02-27T22:27:23;4.60;99.90
51884;DHT22;37915;53.254;6.598;2023-02-27T22:29:49;3.50;99.90
51884;DHT22;37915;53.254;6.598;2023-02-27T22:32:15;3.50;99.90
51884;DHT22;37915;53.254;6.598;2023-02-27T22:34:40;4.20;99.90
51884;DHT22;37915;53.254;6.598;2023-02-27T22:37:06;3.90;99.90
51884;DHT22;37915;53.254;6.598;2023-02-27T22:39:31;4.00;99.90
51884;DHT22;37915;53.254;6.598;2023-02-27T22:41:57;3.60;99.90
51884;DHT22;37915;53.254;6.598;2023-02-27T22:44:23;4.90;99.90
51884;DHT22;37915;53.254;6.598;2023-02-27T22:46:48;3.60;99.90
51884;DHT22;37915;53.254;6.598;2023-02-27T22:49:21;3.70;99.90
51884;DHT22;37915;53.254;6.598;2023-02-27T22:51:46;3.70;99.90
51884;DHT22;37915;53.254;6.598;2023-02-27T22:54:14;3.70;99.90
51884;DHT22;37915;53.254;6.598;2023-02-27T22:56:39;3.90;99.90
51884;DHT22;37915;53.254;6.598;2023-02-27T22:59:06;3.70;99.90
51884;DHT22;37915;53.254;6.598;2023-02-27T23:01:32;3.70;99.90
51884;DHT22;37915;53.254;6.598;2023-02-27T23:04:00;3.70;99.90
51884;DHT22;37915;53.254;6.598;2023-02-27T23:06:27;3.70;99.90
51884;DHT22;37915;53.254;6.598;2023-02-27T23:08:53;3.40;99.90
51884;DHT22;37915;53.254;6.598;2023-02-27T23:11:19;3.80;99.90
51884;DHT22;37915;53.254;6.598;2023-02-27T23:13:45;3.70;99.90
51884;DHT22;37915;53.254;6.598;2023-02-27T23:16:11;3.80;99.90
51884;DHT22;37915;53.254;6.598;2023-02-27T23:18:38;3.70;99.90
51884;DHT22;37915;53.254;6.598;2023-02-27T23:21:04;3.70;99.90
51884;DHT22;37915;53.254;6.598;2023-02-27T23:23:30;3.70;99.90
51884;DHT22;37915;53.254;6.598;2023-02-27T23:25:57;4.20;99.90
51884;DHT22;37915;53.254;6.598;2023-02-27T23:28:23;3.80;99.90
51884;DHT22;37915;53.254;6.598;2023-02-27T23:30:49;3.90;99.90
51884;DHT22;37915;53.254;6.598;2023-02-27T23:33:14;4.40;99.90
51884;DHT22;37915;53.254;6.598;2023-02-27T23:35:40;3.80;99.90
51884;DHT22;37915;53.254;6.598;2023-02-27T23:38:05;3.80;99.90
51884;DHT22;37915;53.254;6.598;2023-02-27T23:40:31;3.80;99.90
51884;DHT22;37915;53.254;6.598;2023-02-27T23:42:57;3.90;99.90
51884;DHT22;37915;53.254;6.598;2023-02-27T23:45:22;3.80;99.90
51884;DHT22;37915;53.254;6.598;2023-02-27T23:47:53;3.80;99.90
51884;DHT22;37915;53.254;6.598;2023-02-27T23:50:20;3.80;99.90
51884;DHT22;37915;53.254;6.598;2023-02-27T23:52:46;3.80;99.90
51884;DHT22;37915;53.254;6.598;2023-02-27T23:55:12;4.70;99.90
51884;DHT22;37915;53.254;6.598;2023-02-27T23:57:38;3.80;99.90
